Portada
METAR-TAF:

METAR-TAF

Aeroports :

Baltra, Illes Galápagos, Equador

latitud: 00-27-14S, longitud: 090-15-57W, altitud: 63 m

Observació

L'informe es va fer fa 44 minuts, a les 18:00 UTC
Vent 17 kt del Sud/Sud-Est
Temperatura 27°C
Humitat 51%
Pressió 1013 hPa
Visibilitat 10 km o més
Escasses núvols a una alçada de 2300 ft

METAR: SEGS 161800Z 15017KT 9999 FEW023 27/16 Q1012 A2990

Hora: 12:44 (18:44 UTC)


TAF: manca

Observacions i pronòstics meteorològics de més de 4000 aeroports (METAR i TAF).

Les estacions disponibles són els punts grocs i vermells al mapa.

Posi el ratolí al punt desitjat per veure el nom de l'estació.

Feu clic per veure les observacions i els pronòstics meteorològics.

Per canviar el mapa: feu clic els botons verds amb una creu de color negre per apropar; al botó verd amb un guió per allunyar la imatge; o en les fletxes verdes per a mapes adjacents.


METAR-TAF: